PGT839Q LTFJ-EDDL
Flight info
| Callsign | PGT839Q |
|---|---|
| Flight time | N/A |
| Altitude | 36000 |
| Route | TUDBU1J/06L TUDBU DCT NAVOD DCT PANZU DCT SODGO DCT GUPRO/N0444F380 DCT MOPUG DCT BEGLA DCT FMD DCT DITIS DCT VEXIL DCT KUMER DCT TOLTA DCT APEBE L602 HMM/N0392F240 T851 HALME HALME1A |
| Aircraft | A320/M-SDE3FGHIRWY/LB1 |
Departure
| Time | 2026-05-05 16:07 |
|---|---|
| Airport | Istanbul Sabiha Gökçen International Airport (LTFJ) |
Arrival
| Time | N/A |
|---|---|
| Airport | Düsseldorf Airport (EDDL) |
| Time | Latitude | Longitude | Altitude | Speed | Heading |
|---|---|---|---|---|---|
| 2026-05-05 15:43 | 40.90599 | 29.32081 | 310 ft | 0 kts | 154° |
| 2026-05-05 15:53 | 40.90602 | 29.32079 | 310 ft | 3 kts | 153° |
| 2026-05-05 15:53 | 40.90624 | 29.32064 | 311 ft | 4 kts | 151° |
| 2026-05-05 15:53 | 40.90647 | 29.32045 | 308 ft | 4 kts | 134° |
| 2026-05-05 15:53 | 40.90659 | 29.32018 | 309 ft | 4 kts | 88° |
| 2026-05-05 15:54 | 40.90658 | 29.32004 | 309 ft | 0 kts | 64° |
| 2026-05-05 15:58 | 40.90663 | 29.32017 | 308 ft | 3 kts | 64° |
| 2026-05-05 15:58 | 40.90680 | 29.32063 | 310 ft | 8 kts | 64° |
| 2026-05-05 15:59 | 40.90709 | 29.32141 | 311 ft | 12 kts | 63° |
| 2026-05-05 15:59 | 40.90747 | 29.32255 | 311 ft | 7 kts | 93° |
| 2026-05-05 15:59 | 40.90697 | 29.32288 | 311 ft | 10 kts | 154° |
| 2026-05-05 15:59 | 40.90623 | 29.32350 | 310 ft | 15 kts | 130° |
| 2026-05-05 16:00 | 40.90545 | 29.32446 | 311 ft | 16 kts | 153° |
| 2026-05-05 16:00 | 40.90445 | 29.32510 | 313 ft | 16 kts | 154° |
| 2026-05-05 16:00 | 40.90342 | 29.32577 | 310 ft | 18 kts | 154° |
| 2026-05-05 16:00 | 40.90260 | 29.32513 | 310 ft | 15 kts | 242° |
| 2026-05-05 16:01 | 40.90214 | 29.32400 | 311 ft | 12 kts | 237° |
| 2026-05-05 16:01 | 40.90177 | 29.32307 | 311 ft | 11 kts | 246° |
| 2026-05-05 16:01 | 40.90147 | 29.32218 | 310 ft | 13 kts | 246° |
| 2026-05-05 16:01 | 40.90105 | 29.32094 | 311 ft | 14 kts | 245° |
| 2026-05-05 16:02 | 40.90032 | 29.32072 | 310 ft | 10 kts | 182° |
| 2026-05-05 16:02 | 40.89973 | 29.32101 | 311 ft | 8 kts | 155° |
| 2026-05-05 16:02 | 40.89940 | 29.32122 | 311 ft | 8 kts | 153° |
| 2026-05-05 16:02 | 40.89860 | 29.32176 | 309 ft | 20 kts | 153° |
| 2026-05-05 16:03 | 40.89709 | 29.32273 | 305 ft | 26 kts | 154° |
| 2026-05-05 16:03 | 40.89547 | 29.32365 | 303 ft | 23 kts | 168° |
| 2026-05-05 16:03 | 40.89440 | 29.32268 | 305 ft | 21 kts | 251° |
| 2026-05-05 16:03 | 40.89373 | 29.32099 | 303 ft | 22 kts | 245° |
| 2026-05-05 16:04 | 40.89308 | 29.31911 | 302 ft | 23 kts | 245° |
| 2026-05-05 16:04 | 40.89237 | 29.31708 | 301 ft | 25 kts | 245° |
| 2026-05-05 16:04 | 40.89160 | 29.31494 | 301 ft | 27 kts | 244° |
| 2026-05-05 16:04 | 40.89070 | 29.31274 | 301 ft | 28 kts | 243° |
| 2026-05-05 16:05 | 40.88990 | 29.31058 | 297 ft | 26 kts | 244° |
| 2026-05-05 16:05 | 40.88908 | 29.30833 | 294 ft | 29 kts | 244° |
| 2026-05-05 16:05 | 40.88823 | 29.30602 | 287 ft | 27 kts | 244° |
| 2026-05-05 16:05 | 40.88741 | 29.30380 | 281 ft | 27 kts | 244° |
| 2026-05-05 16:06 | 40.88663 | 29.30195 | 278 ft | 16 kts | 216° |
| 2026-05-05 16:06 | 40.88574 | 29.30221 | 278 ft | 13 kts | 154° |
| 2026-05-05 16:06 | 40.88500 | 29.30269 | 278 ft | 10 kts | 145° |
| 2026-05-05 16:06 | 40.88512 | 29.30334 | 282 ft | 9 kts | 64° |
| 2026-05-05 16:07 | 40.88613 | 29.30605 | 298 ft | 66 kts | 64° |
| 2026-05-05 16:07 | 40.88909 | 29.31410 | 297 ft | 125 kts | 64° |
| 2026-05-05 16:07 | 40.89360 | 29.32627 | 383 ft | 163 kts | 64° |
| 2026-05-05 16:07 | 40.89855 | 29.33975 | 1033 ft | 164 kts | 64° |
| 2026-05-05 16:08 | 40.90194 | 29.35413 | 1682 ft | 168 kts | 95° |
| 2026-05-05 16:08 | 40.89893 | 29.36928 | 2207 ft | 179 kts | 107° |
| 2026-05-05 16:08 | 40.89622 | 29.38622 | 2543 ft | 199 kts | 96° |
| 2026-05-05 16:08 | 40.89486 | 29.40556 | 2782 ft | 228 kts | 94° |
| 2026-05-05 16:09 | 40.89356 | 29.42775 | 3190 ft | 253 kts | 93° |
| 2026-05-05 16:09 | 40.89304 | 29.45028 | 4392 ft | 238 kts | 81° |
| 2026-05-05 16:09 | 40.89769 | 29.47075 | 5355 ft | 231 kts | 60° |
| 2026-05-05 16:09 | 40.90483 | 29.48975 | 6237 ft | 231 kts | 60° |
| 2026-05-05 16:10 | 40.91195 | 29.50882 | 7047 ft | 232 kts | 60° |
| 2026-05-05 16:10 | 40.91902 | 29.52789 | 7819 ft | 235 kts | 59° |
| 2026-05-05 16:10 | 40.92620 | 29.54739 | 8607 ft | 238 kts | 60° |
| 2026-05-05 16:10 | 40.93348 | 29.56724 | 9395 ft | 241 kts | 60° |
| 2026-05-05 16:11 | 40.94080 | 29.58731 | 10165 ft | 244 kts | 60° |
| 2026-05-05 16:11 | 40.96331 | 29.64921 | 12360 ft | 253 kts | 60° |
| 2026-05-05 16:12 | 40.97099 | 29.67026 | 13101 ft | 255 kts | 60° |
| 2026-05-05 16:12 | 40.99098 | 29.70891 | 14535 ft | 258 kts | 36° |
| 2026-05-05 16:13 | 41.04687 | 29.70958 | 15046 ft | 318 kts | 337° |
| 2026-05-05 16:13 | 41.06755 | 29.69771 | 15177 ft | 338 kts | 336° |
| 2026-05-05 16:13 | 41.08943 | 29.68496 | 15595 ft | 347 kts | 336° |
| 2026-05-05 16:14 | 41.13425 | 29.65881 | 16781 ft | 356 kts | 337° |
| 2026-05-05 16:14 | 41.18017 | 29.63229 | 17947 ft | 364 kts | 337° |
| 2026-05-05 16:15 | 41.22717 | 29.60530 | 19020 ft | 371 kts | 337° |
| 2026-05-05 16:15 | 41.27496 | 29.57779 | 20064 ft | 377 kts | 337° |
| 2026-05-05 16:16 | 41.32349 | 29.54982 | 21058 ft | 383 kts | 337° |
| 2026-05-05 16:16 | 41.37278 | 29.52150 | 22033 ft | 389 kts | 337° |
| 2026-05-05 16:17 | 41.42277 | 29.49270 | 22987 ft | 394 kts | 338° |
| 2026-05-05 16:17 | 41.44805 | 29.47804 | 23459 ft | 397 kts | 338° |
| 2026-05-05 16:18 | 41.49869 | 29.44854 | 24039 ft | 401 kts | 338° |
| 2026-05-05 16:18 | 41.52459 | 29.43343 | 24079 ft | 401 kts | 338° |
| 2026-05-05 16:18 | 41.57570 | 29.40371 | 24085 ft | 400 kts | 338° |
| 2026-05-05 16:19 | 41.60018 | 29.38701 | 24078 ft | 402 kts | 328° |
| 2026-05-05 16:19 | 41.62173 | 29.36307 | 24163 ft | 407 kts | 314° |
| 2026-05-05 16:19 | 41.64909 | 29.29635 | 24918 ft | 419 kts | 289° |
| 2026-05-05 16:20 | 41.66570 | 29.22117 | 25632 ft | 424 kts | 288° |
| 2026-05-05 16:20 | 41.68202 | 29.14489 | 26345 ft | 429 kts | 288° |
| 2026-05-05 16:21 | 41.69846 | 29.06754 | 26996 ft | 435 kts | 287° |
| 2026-05-05 16:22 | 41.72365 | 28.94961 | 28003 ft | 443 kts | 287° |
| 2026-05-05 16:22 | 41.74064 | 28.86978 | 28655 ft | 448 kts | 287° |
| 2026-05-05 16:23 | 41.75780 | 28.78904 | 29250 ft | 453 kts | 287° |
| 2026-05-05 16:23 | 41.76641 | 28.74828 | 29537 ft | 456 kts | 287° |
| 2026-05-05 16:23 | 41.78359 | 28.66665 | 30090 ft | 460 kts | 287° |
| 2026-05-05 16:24 | 41.79227 | 28.62529 | 30341 ft | 462 kts | 287° |
| 2026-05-05 16:24 | 41.80101 | 28.58365 | 30595 ft | 464 kts | 287° |
| 2026-05-05 16:24 | 41.81847 | 28.50021 | 31163 ft | 465 kts | 287° |
| 2026-05-05 16:25 | 41.82714 | 28.45851 | 31529 ft | 463 kts | 287° |
| 2026-05-05 16:25 | 41.84437 | 28.37558 | 32263 ft | 460 kts | 287° |
| 2026-05-05 16:25 | 41.85293 | 28.33431 | 32631 ft | 459 kts | 287° |
| 2026-05-05 16:26 | 41.86996 | 28.25199 | 33347 ft | 456 kts | 287° |
| 2026-05-05 16:26 | 41.88674 | 28.17016 | 34059 ft | 454 kts | 287° |
| 2026-05-05 16:27 | 41.89511 | 28.12937 | 34369 ft | 452 kts | 287° |
| 2026-05-05 16:27 | 41.90346 | 28.08874 | 34683 ft | 451 kts | 287° |
| 2026-05-05 16:27 | 41.91176 | 28.04821 | 34993 ft | 449 kts | 287° |
| 2026-05-05 16:27 | 41.92001 | 28.00783 | 35294 ft | 448 kts | 287° |
| 2026-05-05 16:28 | 41.92822 | 27.96755 | 35587 ft | 446 kts | 287° |
| 2026-05-05 16:28 | 41.93636 | 27.92735 | 35871 ft | 445 kts | 287° |
| 2026-05-05 16:28 | 41.94445 | 27.88726 | 36042 ft | 445 kts | 287° |
| 2026-05-05 16:28 | 41.95251 | 27.84722 | 36074 ft | 444 kts | 287° |
| 2026-05-05 16:29 | 41.97372 | 27.77052 | 36073 ft | 439 kts | 301° |
| 2026-05-05 16:29 | 42.00948 | 27.70431 | 36070 ft | 438 kts | 310° |
| 2026-05-05 16:30 | 42.04708 | 27.63993 | 36071 ft | 438 kts | 309° |
| 2026-05-05 16:30 | 42.08455 | 27.57541 | 36068 ft | 436 kts | 309° |
| 2026-05-05 16:31 | 42.12194 | 27.51115 | 36065 ft | 435 kts | 309° |
| 2026-05-05 16:31 | 42.15927 | 27.44689 | 36059 ft | 435 kts | 309° |
| 2026-05-05 16:32 | 42.19666 | 27.38246 | 36057 ft | 437 kts | 309° |
| 2026-05-05 16:32 | 42.23412 | 27.31775 | 36055 ft | 437 kts | 309° |
| 2026-05-05 16:33 | 42.27145 | 27.25301 | 36051 ft | 437 kts | 309° |
| 2026-05-05 16:33 | 42.30845 | 27.18870 | 36051 ft | 437 kts | 309° |
| 2026-05-05 16:34 | 42.34572 | 27.12392 | 36048 ft | 437 kts | 309° |
| 2026-05-05 16:34 | 42.38277 | 27.05929 | 36050 ft | 433 kts | 309° |
| 2026-05-05 16:35 | 42.41956 | 26.99493 | 36048 ft | 432 kts | 309° |
| 2026-05-05 16:35 | 42.45628 | 26.93068 | 36042 ft | 431 kts | 309° |
| 2026-05-05 16:36 | 42.49297 | 26.86637 | 36031 ft | 432 kts | 309° |
| 2026-05-05 16:36 | 42.52954 | 26.80212 | 36042 ft | 430 kts | 309° |
| 2026-05-05 16:37 | 42.56598 | 26.73781 | 36035 ft | 430 kts | 309° |
| 2026-05-05 16:37 | 42.60241 | 26.67340 | 36034 ft | 430 kts | 309° |
| 2026-05-05 16:38 | 42.63880 | 26.60887 | 36023 ft | 430 kts | 310° |
| 2026-05-05 16:38 | 42.67503 | 26.54453 | 36029 ft | 428 kts | 310° |
| 2026-05-05 16:39 | 42.71114 | 26.48034 | 36029 ft | 427 kts | 310° |
| 2026-05-05 16:39 | 42.74726 | 26.41615 | 36026 ft | 427 kts | 309° |
| 2026-05-05 16:40 | 42.78329 | 26.35190 | 36013 ft | 427 kts | 310° |
| 2026-05-05 16:40 | 42.81919 | 26.28759 | 36024 ft | 427 kts | 309° |
| 2026-05-05 16:41 | 42.85503 | 26.22310 | 36021 ft | 427 kts | 309° |
| 2026-05-05 16:41 | 42.89088 | 26.15860 | 36018 ft | 427 kts | 309° |
| 2026-05-05 16:42 | 42.92658 | 26.09438 | 36007 ft | 427 kts | 309° |
| 2026-05-05 16:42 | 42.96240 | 26.02972 | 36010 ft | 427 kts | 309° |
| 2026-05-05 16:43 | 42.99819 | 25.96502 | 36007 ft | 427 kts | 309° |
| 2026-05-05 16:43 | 43.03393 | 25.90030 | 36005 ft | 427 kts | 309° |
| 2026-05-05 16:44 | 43.06960 | 25.83544 | 35991 ft | 426 kts | 309° |
| 2026-05-05 16:44 | 43.10516 | 25.77062 | 36002 ft | 425 kts | 309° |
| 2026-05-05 16:45 | 43.14063 | 25.70583 | 36003 ft | 425 kts | 309° |
| 2026-05-05 16:45 | 43.17614 | 25.64102 | 36002 ft | 425 kts | 309° |
| 2026-05-05 16:46 | 43.21158 | 25.57605 | 36001 ft | 425 kts | 309° |
| 2026-05-05 16:46 | 43.24703 | 25.51096 | 36001 ft | 427 kts | 309° |
| 2026-05-05 16:47 | 43.28232 | 25.44601 | 36001 ft | 427 kts | 309° |
| 2026-05-05 16:47 | 43.31774 | 25.38054 | 36001 ft | 427 kts | 309° |
| 2026-05-05 16:48 | 43.35314 | 25.31511 | 35990 ft | 426 kts | 309° |
| 2026-05-05 16:48 | 43.38836 | 25.24975 | 35997 ft | 425 kts | 309° |
| 2026-05-05 16:49 | 43.42350 | 25.18443 | 35999 ft | 425 kts | 309° |
| 2026-05-05 16:49 | 43.45862 | 25.11901 | 35992 ft | 425 kts | 309° |
| 2026-05-05 16:50 | 43.48803 | 25.06416 | 35990 ft | 425 kts | 309° |
| 2026-05-05 16:50 | 43.52302 | 24.99871 | 35994 ft | 424 kts | 309° |
| 2026-05-05 16:51 | 43.55770 | 24.93374 | 35997 ft | 424 kts | 309° |
| 2026-05-05 16:51 | 43.59268 | 24.86818 | 35986 ft | 425 kts | 309° |
| 2026-05-05 16:52 | 43.62765 | 24.80245 | 36004 ft | 425 kts | 308° |
| 2026-05-05 16:52 | 43.66253 | 24.73669 | 35989 ft | 424 kts | 308° |
| 2026-05-05 16:53 | 43.69732 | 24.67088 | 35989 ft | 424 kts | 308° |
| 2026-05-05 16:53 | 43.73211 | 24.60488 | 35993 ft | 424 kts | 308° |
| 2026-05-05 16:54 | 43.76836 | 24.54089 | 35988 ft | 422 kts | 315° |
| 2026-05-05 16:54 | 43.80802 | 24.48177 | 35989 ft | 422 kts | 314° |
| 2026-05-05 16:55 | 43.84787 | 24.42203 | 35989 ft | 422 kts | 314° |
| 2026-05-05 16:55 | 43.88766 | 24.36216 | 35986 ft | 422 kts | 314° |
| 2026-05-05 16:56 | 43.92746 | 24.30224 | 35987 ft | 423 kts | 314° |
| 2026-05-05 16:56 | 43.96727 | 24.24215 | 35983 ft | 423 kts | 314° |
| 2026-05-05 16:57 | 44.00712 | 24.18182 | 35983 ft | 423 kts | 314° |
| 2026-05-05 16:57 | 44.04690 | 24.12145 | 35983 ft | 423 kts | 314° |
| 2026-05-05 16:58 | 44.08647 | 24.06133 | 35977 ft | 423 kts | 314° |
| 2026-05-05 16:58 | 44.12621 | 24.00082 | 35974 ft | 423 kts | 314° |
| 2026-05-05 16:59 | 44.16586 | 23.94038 | 35978 ft | 422 kts | 314° |
| 2026-05-05 16:59 | 44.20546 | 23.87985 | 35978 ft | 422 kts | 314° |
| 2026-05-05 17:00 | 44.24498 | 23.81926 | 35977 ft | 422 kts | 314° |
| 2026-05-05 17:00 | 44.28440 | 23.75856 | 35968 ft | 422 kts | 313° |
| 2026-05-05 17:01 | 44.32384 | 23.69782 | 35997 ft | 422 kts | 313° |
| 2026-05-05 17:01 | 44.36329 | 23.63706 | 35991 ft | 422 kts | 313° |
| 2026-05-05 17:02 | 44.40269 | 23.57623 | 35986 ft | 422 kts | 313° |
| 2026-05-05 17:02 | 44.44197 | 23.51524 | 35980 ft | 422 kts | 313° |
| 2026-05-05 17:03 | 44.48119 | 23.45417 | 35976 ft | 421 kts | 313° |
| 2026-05-05 17:03 | 44.52019 | 23.39361 | 35978 ft | 422 kts | 313° |
| 2026-05-05 17:04 | 44.55942 | 23.33255 | 35972 ft | 421 kts | 313° |
| 2026-05-05 17:04 | 44.59857 | 23.27133 | 35972 ft | 421 kts | 313° |
| 2026-05-05 17:05 | 44.63770 | 23.20998 | 35968 ft | 422 kts | 313° |
| 2026-05-05 17:05 | 44.67683 | 23.14842 | 35969 ft | 423 kts | 313° |
| 2026-05-05 17:06 | 44.71601 | 23.08673 | 35972 ft | 423 kts | 313° |
| 2026-05-05 17:06 | 44.75525 | 23.02499 | 35969 ft | 423 kts | 313° |
| 2026-05-05 17:07 | 44.79414 | 22.96361 | 35973 ft | 423 kts | 313° |
| 2026-05-05 17:07 | 44.83323 | 22.90165 | 35980 ft | 423 kts | 313° |
| 2026-05-05 17:08 | 44.87217 | 22.83963 | 35973 ft | 423 kts | 313° |
| 2026-05-05 17:08 | 44.91115 | 22.77752 | 35983 ft | 423 kts | 312° |
| 2026-05-05 17:09 | 44.95006 | 22.71533 | 35983 ft | 423 kts | 312° |
| 2026-05-05 17:09 | 44.98903 | 22.65292 | 35986 ft | 424 kts | 312° |
| 2026-05-05 17:10 | 45.02809 | 22.59024 | 35998 ft | 425 kts | 312° |
| 2026-05-05 17:10 | 45.06709 | 22.52748 | 35996 ft | 425 kts | 312° |
| 2026-05-05 17:11 | 45.10605 | 22.46455 | 35994 ft | 425 kts | 312° |
| 2026-05-05 17:11 | 45.14502 | 22.40153 | 35999 ft | 426 kts | 311° |
| 2026-05-05 17:12 | 45.18412 | 22.33819 | 35991 ft | 427 kts | 311° |
| 2026-05-05 17:12 | 45.22322 | 22.27473 | 35992 ft | 427 kts | 311° |
| 2026-05-05 17:13 | 45.26230 | 22.21120 | 35983 ft | 427 kts | 311° |
| 2026-05-05 17:13 | 45.30103 | 22.14798 | 35970 ft | 427 kts | 311° |
| 2026-05-05 17:14 | 45.34003 | 22.08414 | 35976 ft | 428 kts | 311° |
| 2026-05-05 17:14 | 45.37907 | 22.02016 | 35969 ft | 428 kts | 311° |
| 2026-05-05 17:15 | 45.41805 | 21.95616 | 35968 ft | 428 kts | 311° |
| 2026-05-05 17:15 | 45.45705 | 21.89191 | 35965 ft | 428 kts | 311° |
| 2026-05-05 17:16 | 45.49607 | 21.82768 | 35958 ft | 429 kts | 311° |
| 2026-05-05 17:16 | 45.53497 | 21.76376 | 35950 ft | 429 kts | 311° |
| 2026-05-05 17:17 | 45.57408 | 21.69936 | 35947 ft | 429 kts | 310° |
| 2026-05-05 17:17 | 45.61311 | 21.63488 | 35947 ft | 429 kts | 310° |
| 2026-05-05 17:18 | 45.65212 | 21.57030 | 35943 ft | 429 kts | 310° |
| 2026-05-05 17:18 | 45.69105 | 21.50549 | 35942 ft | 429 kts | 310° |
| 2026-05-05 17:19 | 45.72992 | 21.44064 | 35947 ft | 429 kts | 310° |
| 2026-05-05 17:19 | 45.76880 | 21.37579 | 35950 ft | 429 kts | 310° |
| 2026-05-05 17:20 | 45.80770 | 21.31069 | 35949 ft | 430 kts | 310° |
| 2026-05-05 17:20 | 45.84658 | 21.24556 | 35948 ft | 430 kts | 310° |
| 2026-05-05 17:21 | 45.88538 | 21.18033 | 35946 ft | 430 kts | 310° |
| 2026-05-05 17:22 | 45.94327 | 21.08281 | 35941 ft | 430 kts | 310° |
| 2026-05-05 17:22 | 45.98198 | 21.01731 | 35934 ft | 430 kts | 309° |
| 2026-05-05 17:23 | 46.02058 | 20.95182 | 35939 ft | 429 kts | 309° |
| 2026-05-05 17:23 | 46.05909 | 20.88642 | 35937 ft | 429 kts | 309° |
| 2026-05-05 17:24 | 46.09765 | 20.82081 | 35938 ft | 430 kts | 309° |
| 2026-05-05 17:24 | 46.13623 | 20.75502 | 35937 ft | 430 kts | 309° |
| 2026-05-05 17:25 | 46.17433 | 20.68849 | 35933 ft | 429 kts | 307° |
| 2026-05-05 17:25 | 46.20943 | 20.61888 | 35934 ft | 429 kts | 304° |
| 2026-05-05 17:26 | 46.24313 | 20.54784 | 35931 ft | 429 kts | 303° |
| 2026-05-05 17:26 | 46.27695 | 20.47751 | 35928 ft | 429 kts | 304° |
| 2026-05-05 17:27 | 46.31151 | 20.40720 | 35929 ft | 429 kts | 304° |
| 2026-05-05 17:27 | 46.34600 | 20.33697 | 35928 ft | 428 kts | 304° |
| 2026-05-05 17:28 | 46.38027 | 20.26664 | 35928 ft | 427 kts | 304° |
| 2026-05-05 17:28 | 46.41454 | 20.19621 | 35935 ft | 428 kts | 304° |
| 2026-05-05 17:29 | 46.44883 | 20.12567 | 35928 ft | 429 kts | 304° |
| 2026-05-05 17:29 | 46.48317 | 20.05476 | 35928 ft | 429 kts | 304° |
| 2026-05-05 17:30 | 46.51729 | 19.98383 | 35931 ft | 429 kts | 304° |
| 2026-05-05 17:30 | 46.55117 | 19.91329 | 35928 ft | 429 kts | 304° |
| 2026-05-05 17:31 | 46.58532 | 19.84221 | 35928 ft | 429 kts | 304° |
| 2026-05-05 17:31 | 46.61939 | 19.77100 | 35928 ft | 428 kts | 304° |
| 2026-05-05 17:32 | 46.65336 | 19.69984 | 35924 ft | 428 kts | 304° |
| 2026-05-05 17:32 | 46.68735 | 19.62863 | 35926 ft | 428 kts | 304° |
| 2026-05-05 17:33 | 46.72132 | 19.55737 | 35926 ft | 428 kts | 303° |
| 2026-05-05 17:33 | 46.75490 | 19.48646 | 35922 ft | 428 kts | 303° |
| 2026-05-05 17:34 | 46.78874 | 19.41480 | 35922 ft | 429 kts | 303° |
| 2026-05-05 17:34 | 46.82254 | 19.34308 | 35922 ft | 429 kts | 303° |
| 2026-05-05 17:35 | 46.85628 | 19.27129 | 35917 ft | 429 kts | 303° |
| 2026-05-05 17:35 | 46.89001 | 19.19938 | 35917 ft | 429 kts | 303° |
| 2026-05-05 17:36 | 46.92371 | 19.12739 | 35922 ft | 429 kts | 303° |
| 2026-05-05 17:36 | 46.95740 | 19.05529 | 35918 ft | 429 kts | 303° |
| 2026-05-05 17:37 | 46.99107 | 18.98290 | 35911 ft | 429 kts | 303° |
| 2026-05-05 17:37 | 47.02469 | 18.91050 | 35913 ft | 430 kts | 303° |
| 2026-05-05 17:38 | 47.05824 | 18.83807 | 35912 ft | 430 kts | 303° |
| 2026-05-05 17:38 | 47.09181 | 18.76552 | 35913 ft | 430 kts | 303° |
| 2026-05-05 17:39 | 47.11970 | 18.70500 | 35911 ft | 430 kts | 303° |
| 2026-05-05 17:39 | 47.15864 | 18.62023 | 35911 ft | 431 kts | 303° |
| 2026-05-05 17:40 | 47.18669 | 18.55900 | 35913 ft | 431 kts | 302° |
| 2026-05-05 17:40 | 47.21988 | 18.48632 | 35912 ft | 430 kts | 302° |
| 2026-05-05 17:41 | 47.25317 | 18.41321 | 35908 ft | 430 kts | 302° |
| 2026-05-05 17:41 | 47.28646 | 18.33999 | 35909 ft | 431 kts | 302° |
| 2026-05-05 17:42 | 47.31980 | 18.26649 | 35910 ft | 431 kts | 302° |
| 2026-05-05 17:42 | 47.35490 | 18.19513 | 35898 ft | 429 kts | 303° |
| 2026-05-05 17:43 | 47.38743 | 18.12127 | 35903 ft | 430 kts | 300° |
| 2026-05-05 17:43 | 47.41919 | 18.04652 | 35897 ft | 430 kts | 301° |
| 2026-05-05 17:44 | 47.45179 | 17.97262 | 35898 ft | 428 kts | 301° |
| 2026-05-05 17:44 | 47.48453 | 17.89996 | 35893 ft | 427 kts | 301° |
| 2026-05-05 17:45 | 47.51751 | 17.82669 | 35888 ft | 428 kts | 302° |
| 2026-05-05 17:45 | 47.55038 | 17.75292 | 35889 ft | 429 kts | 301° |
| 2026-05-05 17:46 | 47.58323 | 17.67887 | 35892 ft | 430 kts | 301° |
| 2026-05-05 17:46 | 47.61599 | 17.60503 | 35887 ft | 428 kts | 301° |
| 2026-05-05 17:47 | 47.64847 | 17.53136 | 35882 ft | 431 kts | 301° |
| 2026-05-05 17:47 | 47.68122 | 17.45688 | 35881 ft | 430 kts | 301° |
| 2026-05-05 17:48 | 47.71396 | 17.38227 | 35856 ft | 431 kts | 301° |
| 2026-05-05 17:48 | 47.74668 | 17.30756 | 35846 ft | 430 kts | 300° |
| 2026-05-05 17:49 | 47.77921 | 17.23304 | 35840 ft | 431 kts | 301° |
| 2026-05-05 17:49 | 47.81182 | 17.15817 | 35832 ft | 431 kts | 300° |
| 2026-05-05 17:50 | 47.84700 | 17.08603 | 35812 ft | 433 kts | 307° |
| 2026-05-05 17:50 | 47.88599 | 17.01764 | 35821 ft | 433 kts | 307° |
| 2026-05-05 17:51 | 47.92486 | 16.94919 | 35816 ft | 433 kts | 307° |
| 2026-05-05 17:51 | 47.96374 | 16.88046 | 35812 ft | 433 kts | 307° |
| 2026-05-05 17:52 | 48.00230 | 16.81223 | 35798 ft | 433 kts | 307° |
| 2026-05-05 17:52 | 48.04116 | 16.74339 | 35787 ft | 432 kts | 307° |
| 2026-05-05 17:53 | 48.07984 | 16.67453 | 35796 ft | 432 kts | 307° |
| 2026-05-05 17:53 | 48.11839 | 16.60548 | 35779 ft | 432 kts | 306° |
| 2026-05-05 17:54 | 48.15613 | 16.53554 | 35783 ft | 432 kts | 305° |
| 2026-05-05 17:54 | 48.19349 | 16.46520 | 35782 ft | 431 kts | 305° |
| 2026-05-05 17:55 | 48.23097 | 16.39468 | 35772 ft | 433 kts | 306° |
| 2026-05-05 17:55 | 48.26863 | 16.32399 | 35766 ft | 434 kts | 306° |
| 2026-05-05 17:56 | 48.30636 | 16.25325 | 35752 ft | 434 kts | 306° |
| 2026-05-05 17:56 | 48.34404 | 16.18240 | 35733 ft | 435 kts | 306° |
| 2026-05-05 17:57 | 48.38182 | 16.11113 | 35739 ft | 436 kts | 306° |
| 2026-05-05 17:57 | 48.41958 | 16.03966 | 35719 ft | 436 kts | 306° |
| 2026-05-05 17:58 | 48.45726 | 15.96805 | 35718 ft | 436 kts | 306° |
| 2026-05-05 17:58 | 48.49468 | 15.89684 | 35711 ft | 436 kts | 306° |
| 2026-05-05 17:59 | 48.53233 | 15.82503 | 35712 ft | 436 kts | 305° |
| 2026-05-05 17:59 | 48.56989 | 15.75307 | 35712 ft | 436 kts | 306° |
| 2026-05-05 18:00 | 48.60742 | 15.68093 | 35709 ft | 436 kts | 305° |
| 2026-05-05 18:00 | 48.64492 | 15.60877 | 35709 ft | 436 kts | 305° |
| 2026-05-05 18:01 | 48.68231 | 15.53654 | 35708 ft | 436 kts | 305° |
| 2026-05-05 18:01 | 48.71970 | 15.46422 | 35704 ft | 436 kts | 305° |
| 2026-05-05 18:02 | 48.75699 | 15.39185 | 35702 ft | 436 kts | 305° |
| 2026-05-05 18:02 | 48.79405 | 15.31984 | 35702 ft | 436 kts | 305° |
| 2026-05-05 18:03 | 48.83123 | 15.24723 | 35701 ft | 436 kts | 305° |
| 2026-05-05 18:03 | 48.86836 | 15.17449 | 35705 ft | 435 kts | 305° |
| 2026-05-05 18:04 | 48.90656 | 15.10280 | 35705 ft | 437 kts | 311° |
| 2026-05-05 18:04 | 48.94887 | 15.03617 | 35709 ft | 438 kts | 310° |
| 2026-05-05 18:05 | 48.99069 | 14.96961 | 35715 ft | 438 kts | 310° |
| 2026-05-05 18:05 | 49.03269 | 14.90240 | 35717 ft | 438 kts | 310° |
| 2026-05-05 18:06 | 49.07473 | 14.83514 | 35717 ft | 438 kts | 310° |
| 2026-05-05 18:06 | 49.11672 | 14.76779 | 35725 ft | 438 kts | 310° |
| 2026-05-05 18:07 | 49.15870 | 14.70040 | 35724 ft | 438 kts | 310° |
| 2026-05-05 18:07 | 49.20068 | 14.63280 | 35725 ft | 438 kts | 310° |
| 2026-05-05 18:08 | 49.24260 | 14.56505 | 35726 ft | 438 kts | 310° |
| 2026-05-05 18:08 | 49.28448 | 14.49706 | 35732 ft | 438 kts | 310° |
| 2026-05-05 18:09 | 49.32631 | 14.42904 | 35732 ft | 438 kts | 310° |
| 2026-05-05 18:09 | 49.36815 | 14.36100 | 35726 ft | 439 kts | 309° |
| 2026-05-05 18:10 | 49.40973 | 14.29316 | 35736 ft | 439 kts | 309° |
| 2026-05-05 18:10 | 49.45154 | 14.22471 | 35737 ft | 439 kts | 309° |
| 2026-05-05 18:11 | 49.49335 | 14.15605 | 35736 ft | 439 kts | 309° |
| 2026-05-05 18:11 | 49.53512 | 14.08723 | 35740 ft | 439 kts | 309° |
| 2026-05-05 18:12 | 49.57686 | 14.01831 | 35744 ft | 440 kts | 309° |
| 2026-05-05 18:12 | 49.61864 | 13.94927 | 35733 ft | 440 kts | 309° |
| 2026-05-05 18:13 | 49.66013 | 13.88050 | 35736 ft | 440 kts | 309° |
| 2026-05-05 18:13 | 49.70182 | 13.81098 | 35736 ft | 440 kts | 309° |
| 2026-05-05 18:14 | 49.74344 | 13.74137 | 35742 ft | 440 kts | 309° |
| 2026-05-05 18:14 | 49.78472 | 13.67232 | 35751 ft | 440 kts | 309° |
| 2026-05-05 18:15 | 49.82657 | 13.60236 | 35741 ft | 444 kts | 309° |
| 2026-05-05 18:15 | 49.86838 | 13.53196 | 35745 ft | 443 kts | 308° |
| 2026-05-05 18:16 | 49.91003 | 13.46157 | 35743 ft | 442 kts | 308° |
| 2026-05-05 18:16 | 49.95161 | 13.39123 | 35737 ft | 442 kts | 308° |
| 2026-05-05 18:17 | 49.99318 | 13.32070 | 35739 ft | 442 kts | 308° |
| 2026-05-05 18:17 | 50.03471 | 13.25010 | 35740 ft | 442 kts | 308° |
| 2026-05-05 18:18 | 50.07618 | 13.17945 | 35742 ft | 442 kts | 308° |
| 2026-05-05 18:18 | 50.11766 | 13.10859 | 35774 ft | 442 kts | 308° |
| 2026-05-05 18:19 | 50.15901 | 13.03766 | 35783 ft | 442 kts | 308° |
| 2026-05-05 18:19 | 50.20028 | 12.96659 | 35783 ft | 442 kts | 308° |
| 2026-05-05 18:20 | 50.24158 | 12.89520 | 35783 ft | 444 kts | 308° |
| 2026-05-05 18:20 | 50.28274 | 12.82403 | 35782 ft | 444 kts | 308° |
| 2026-05-05 18:21 | 50.32415 | 12.75232 | 35776 ft | 444 kts | 308° |
| 2026-05-05 18:21 | 50.36560 | 12.68031 | 35770 ft | 444 kts | 308° |
| 2026-05-05 18:22 | 50.40696 | 12.60830 | 35766 ft | 445 kts | 308° |
| 2026-05-05 18:22 | 50.44913 | 12.53698 | 35757 ft | 448 kts | 309° |
| 2026-05-05 18:23 | 50.49198 | 12.46556 | 35760 ft | 449 kts | 309° |
| 2026-05-05 18:23 | 50.53470 | 12.39380 | 35761 ft | 450 kts | 308° |
| 2026-05-05 18:24 | 50.57721 | 12.32163 | 35762 ft | 450 kts | 308° |
| 2026-05-05 18:24 | 50.61975 | 12.24930 | 35761 ft | 450 kts | 308° |
| 2026-05-05 18:25 | 50.66197 | 12.17722 | 35766 ft | 451 kts | 308° |
| 2026-05-05 18:25 | 50.70453 | 12.10436 | 35766 ft | 452 kts | 308° |
| 2026-05-05 18:26 | 50.74707 | 12.03151 | 35772 ft | 450 kts | 308° |
| 2026-05-05 18:26 | 50.78938 | 11.95866 | 35772 ft | 450 kts | 308° |
| 2026-05-05 18:27 | 50.82450 | 11.89800 | 35771 ft | 450 kts | 308° |
| 2026-05-05 18:27 | 50.86670 | 11.82491 | 35782 ft | 449 kts | 308° |
| 2026-05-05 18:28 | 50.93031 | 11.71429 | 35788 ft | 454 kts | 308° |
| 2026-05-05 18:28 | 50.97294 | 11.64022 | 35794 ft | 455 kts | 308° |
| 2026-05-05 18:29 | 51.01547 | 11.56601 | 35801 ft | 453 kts | 307° |
| 2026-05-05 18:29 | 51.05769 | 11.49189 | 35805 ft | 452 kts | 307° |
| 2026-05-05 18:30 | 51.09988 | 11.41764 | 35824 ft | 453 kts | 307° |
| 2026-05-05 18:30 | 51.14218 | 11.34300 | 35808 ft | 455 kts | 307° |
| 2026-05-05 18:31 | 51.18432 | 11.26857 | 35821 ft | 455 kts | 307° |
| 2026-05-05 18:31 | 51.22668 | 11.19353 | 35809 ft | 455 kts | 307° |
| 2026-05-05 18:32 | 51.26899 | 11.11821 | 35815 ft | 455 kts | 307° |